sensor_id;sensor_type;location;lat;lon;timestamp;P1;durP1;ratioP1;P2;durP2;ratioP2
55915;SDS011;41826;53.246;-6.670;2023-06-04T00:00:17;5.65;;;3.22;;
55915;SDS011;41826;53.246;-6.670;2023-06-04T00:02:43;5.65;;;3.22;;
55915;SDS011;41826;53.246;-6.670;2023-06-04T00:05:08;5.15;;;2.90;;
55915;SDS011;41826;53.246;-6.670;2023-06-04T00:07:33;4.25;;;2.20;;
55915;SDS011;41826;53.246;-6.670;2023-06-04T00:09:59;1.58;;;1.40;;
55915;SDS011;41826;53.246;-6.670;2023-06-04T00:12:25;6.03;;;2.97;;
55915;SDS011;41826;53.246;-6.670;2023-06-04T00:14:50;6.00;;;2.65;;
55915;SDS011;41826;53.246;-6.670;2023-06-04T00:17:16;9.75;;;3.53;;
55915;SDS011;41826;53.246;-6.670;2023-06-04T00:19:41;5.68;;;3.40;;
55915;SDS011;41826;53.246;-6.670;2023-06-04T00:22:07;5.45;;;2.42;;
55915;SDS011;41826;53.246;-6.670;2023-06-04T00:24:33;7.47;;;2.92;;
55915;SDS011;41826;53.246;-6.670;2023-06-04T00:27:00;4.47;;;2.35;;
55915;SDS011;41826;53.246;-6.670;2023-06-04T00:29:25;2.97;;;2.00;;
55915;SDS011;41826;53.246;-6.670;2023-06-04T00:31:50;3.95;;;2.03;;
55915;SDS011;41826;53.246;-6.670;2023-06-04T00:34:17;3.25;;;1.85;;
55915;SDS011;41826;53.246;-6.670;2023-06-04T00:36:43;2.75;;;1.90;;
55915;SDS011;41826;53.246;-6.670;2023-06-04T00:39:08;1.80;;;1.63;;
55915;SDS011;41826;53.246;-6.670;2023-06-04T00:41:34;2.78;;;1.80;;
55915;SDS011;41826;53.246;-6.670;2023-06-04T00:43:59;3.83;;;1.92;;
55915;SDS011;41826;53.246;-6.670;2023-06-04T00:46:27;4.57;;;1.70;;
55915;SDS011;41826;53.246;-6.670;2023-06-04T00:48:53;4.45;;;2.33;;
55915;SDS011;41826;53.246;-6.670;2023-06-04T00:51:19;5.15;;;2.05;;
55915;SDS011;41826;53.246;-6.670;2023-06-04T00:53:46;2.10;;;1.60;;
55915;SDS011;41826;53.246;-6.670;2023-06-04T00:56:12;3.17;;;1.83;;
55915;SDS011;41826;53.246;-6.670;2023-06-04T00:58:38;3.25;;;2.60;;
55915;SDS011;41826;53.246;-6.670;2023-06-04T01:01:04;3.10;;;1.35;;
55915;SDS011;41826;53.246;-6.670;2023-06-04T01:03:38;2.25;;;1.40;;
55915;SDS011;41826;53.246;-6.670;2023-06-04T01:06:16;1.95;;;1.27;;
55915;SDS011;41826;53.246;-6.670;2023-06-04T01:08:50;1.50;;;1.20;;
55915;SDS011;41826;53.246;-6.670;2023-06-04T01:11:30;1.45;;;1.20;;
55915;SDS011;41826;53.246;-6.670;2023-06-04T01:14:06;1.02;;;1.00;;
55915;SDS011;41826;53.246;-6.670;2023-06-04T01:19:17;1.30;;;1.20;;
55915;SDS011;41826;53.246;-6.670;2023-06-04T01:21:48;2.30;;;1.20;;
55915;SDS011;41826;53.246;-6.670;2023-06-04T01:24:18;1.58;;;1.20;;
55915;SDS011;41826;53.246;-6.670;2023-06-04T01:26:47;1.48;;;1.00;;
55915;SDS011;41826;53.246;-6.670;2023-06-04T01:29:13;1.35;;;1.23;;
55915;SDS011;41826;53.246;-6.670;2023-06-04T01:31:38;2.88;;;1.10;;
55915;SDS011;41826;53.246;-6.670;2023-06-04T01:34:07;2.53;;;1.52;;
55915;SDS011;41826;53.246;-6.670;2023-06-04T01:36:33;2.10;;;1.30;;
55915;SDS011;41826;53.246;-6.670;2023-06-04T01:38:58;2.40;;;1.30;;
55915;SDS011;41826;53.246;-6.670;2023-06-04T01:41:25;2.90;;;1.45;;
55915;SDS011;41826;53.246;-6.670;2023-06-04T01:43:51;1.70;;;1.20;;
55915;SDS011;41826;53.246;-6.670;2023-06-04T01:46:16;1.42;;;1.30;;
55915;SDS011;41826;53.246;-6.670;2023-06-04T01:48:42;1.63;;;1.10;;
55915;SDS011;41826;53.246;-6.670;2023-06-04T01:51:07;2.35;;;1.00;;
55915;SDS011;41826;53.246;-6.670;2023-06-04T01:53:34;5.07;;;2.22;;
55915;SDS011;41826;53.246;-6.670;2023-06-04T01:56:00;5.15;;;2.45;;
55915;SDS011;41826;53.246;-6.670;2023-06-04T01:58:26;1.50;;;1.10;;
55915;SDS011;41826;53.246;-6.670;2023-06-04T02:00:55;1.08;;;1.00;;
55915;SDS011;41826;53.246;-6.670;2023-06-04T02:03:25;1.95;;;1.65;;
55915;SDS011;41826;53.246;-6.670;2023-06-04T02:05:51;1.90;;;1.42;;
55915;SDS011;41826;53.246;-6.670;2023-06-04T02:08:16;3.08;;;1.35;;
55915;SDS011;41826;53.246;-6.670;2023-06-04T02:10:44;1.88;;;1.38;;
55915;SDS011;41826;53.246;-6.670;2023-06-04T02:13:11;1.23;;;1.10;;
55915;SDS011;41826;53.246;-6.670;2023-06-04T02:15:37;2.13;;;1.50;;
55915;SDS011;41826;53.246;-6.670;2023-06-04T02:18:15;2.13;;;1.20;;
55915;SDS011;41826;53.246;-6.670;2023-06-04T02:20:47;7.40;;;2.90;;
55915;SDS011;41826;53.246;-6.670;2023-06-04T02:23:14;5.28;;;2.70;;
55915;SDS011;41826;53.246;-6.670;2023-06-04T02:25:42;6.03;;;3.22;;
55915;SDS011;41826;53.246;-6.670;2023-06-04T02:28:11;4.55;;;2.63;;
55915;SDS011;41826;53.246;-6.670;2023-06-04T02:30:37;4.45;;;3.15;;
55915;SDS011;41826;53.246;-6.670;2023-06-04T02:33:02;2.35;;;2.03;;
55915;SDS011;41826;53.246;-6.670;2023-06-04T02:35:29;6.72;;;2.78;;
55915;SDS011;41826;53.246;-6.670;2023-06-04T02:37:56;3.38;;;1.40;;
55915;SDS011;41826;53.246;-6.670;2023-06-04T02:40:23;3.55;;;1.35;;
55915;SDS011;41826;53.246;-6.670;2023-06-04T02:42:50;4.15;;;1.95;;
55915;SDS011;41826;53.246;-6.670;2023-06-04T02:45:15;3.35;;;1.90;;
55915;SDS011;41826;53.246;-6.670;2023-06-04T02:47:41;6.10;;;2.17;;
55915;SDS011;41826;53.246;-6.670;2023-06-04T02:50:06;4.55;;;2.50;;
55915;SDS011;41826;53.246;-6.670;2023-06-04T02:52:32;5.65;;;2.63;;
55915;SDS011;41826;53.246;-6.670;2023-06-04T02:54:58;6.10;;;2.95;;
55915;SDS011;41826;53.246;-6.670;2023-06-04T02:57:24;9.10;;;2.85;;
55915;SDS011;41826;53.246;-6.670;2023-06-04T02:59:51;4.65;;;2.95;;
55915;SDS011;41826;53.246;-6.670;2023-06-04T03:02:17;8.70;;;2.90;;
55915;SDS011;41826;53.246;-6.670;2023-06-04T03:04:43;6.25;;;2.67;;
55915;SDS011;41826;53.246;-6.670;2023-06-04T03:07:09;4.75;;;2.88;;
55915;SDS011;41826;53.246;-6.670;2023-06-04T03:09:36;8.68;;;3.47;;
55915;SDS011;41826;53.246;-6.670;2023-06-04T03:12:02;7.45;;;2.97;;
55915;SDS011;41826;53.246;-6.670;2023-06-04T03:14:28;7.78;;;3.25;;
55915;SDS011;41826;53.246;-6.670;2023-06-04T03:16:58;7.43;;;3.30;;
55915;SDS011;41826;53.246;-6.670;2023-06-04T03:19:33;7.20;;;3.42;;
55915;SDS011;41826;53.246;-6.670;2023-06-04T03:22:02;8.35;;;3.28;;
55915;SDS011;41826;53.246;-6.670;2023-06-04T03:24:30;10.55;;;4.03;;
55915;SDS011;41826;53.246;-6.670;2023-06-04T03:26:58;5.82;;;3.38;;
55915;SDS011;41826;53.246;-6.670;2023-06-04T03:29:24;7.10;;;3.33;;
55915;SDS011;41826;53.246;-6.670;2023-06-04T03:31:49;6.15;;;3.55;;
55915;SDS011;41826;53.246;-6.670;2023-06-04T03:34:16;11.88;;;3.88;;
55915;SDS011;41826;53.246;-6.670;2023-06-04T03:36:41;5.95;;;2.72;;
55915;SDS011;41826;53.246;-6.670;2023-06-04T03:39:07;8.80;;;3.45;;
55915;SDS011;41826;53.246;-6.670;2023-06-04T03:41:32;6.00;;;3.17;;
55915;SDS011;41826;53.246;-6.670;2023-06-04T03:43:58;6.95;;;3.13;;
55915;SDS011;41826;53.246;-6.670;2023-06-04T03:46:23;6.43;;;3.65;;
55915;SDS011;41826;53.246;-6.670;2023-06-04T03:48:54;10.43;;;4.72;;
55915;SDS011;41826;53.246;-6.670;2023-06-04T03:51:19;7.15;;;2.78;;
55915;SDS011;41826;53.246;-6.670;2023-06-04T03:53:45;2.30;;;1.35;;
55915;SDS011;41826;53.246;-6.670;2023-06-04T03:56:10;3.30;;;1.38;;
55915;SDS011;41826;53.246;-6.670;2023-06-04T03:58:36;1.45;;;1.20;;
55915;SDS011;41826;53.246;-6.670;2023-06-04T04:01:02;2.10;;;1.92;;
55915;SDS011;41826;53.246;-6.670;2023-06-04T04:03:29;1.42;;;1.17;;
55915;SDS011;41826;53.246;-6.670;2023-06-04T04:05:56;1.33;;;1.13;;
55915;SDS011;41826;53.246;-6.670;2023-06-04T04:08:23;1.50;;;1.40;;
55915;SDS011;41826;53.246;-6.670;2023-06-04T04:10:50;2.55;;;1.10;;
55915;SDS011;41826;53.246;-6.670;2023-06-04T04:13:16;0.73;;;0.73;;
55915;SDS011;41826;53.246;-6.670;2023-06-04T04:15:41;1.17;;;1.00;;
55915;SDS011;41826;53.246;-6.670;2023-06-04T04:18:07;1.45;;;0.98;;
55915;SDS011;41826;53.246;-6.670;2023-06-04T04:20:35;1.58;;;1.20;;
55915;SDS011;41826;53.246;-6.670;2023-06-04T04:23:01;1.10;;;1.00;;
55915;SDS011;41826;53.246;-6.670;2023-06-04T04:25:26;1.65;;;1.38;;
55915;SDS011;41826;53.246;-6.670;2023-06-04T04:27:53;7.05;;;3.10;;
55915;SDS011;41826;53.246;-6.670;2023-06-04T04:30:21;5.35;;;2.20;;
55915;SDS011;41826;53.246;-6.670;2023-06-04T04:32:47;1.80;;;1.00;;
55915;SDS011;41826;53.246;-6.670;2023-06-04T04:35:15;3.33;;;1.40;;
55915;SDS011;41826;53.246;-6.670;2023-06-04T04:37:43;1.00;;;0.90;;
55915;SDS011;41826;53.246;-6.670;2023-06-04T04:40:10;5.18;;;3.30;;
55915;SDS011;41826;53.246;-6.670;2023-06-04T04:42:37;12.25;;;3.83;;
55915;SDS011;41826;53.246;-6.670;2023-06-04T04:45:03;2.45;;;1.40;;
55915;SDS011;41826;53.246;-6.670;2023-06-04T04:47:30;1.42;;;1.30;;
55915;SDS011;41826;53.246;-6.670;2023-06-04T04:49:56;1.45;;;1.13;;
55915;SDS011;41826;53.246;-6.670;2023-06-04T04:52:21;3.05;;;1.52;;
55915;SDS011;41826;53.246;-6.670;2023-06-04T04:54:47;2.47;;;1.35;;
55915;SDS011;41826;53.246;-6.670;2023-06-04T04:57:12;1.35;;;1.00;;
55915;SDS011;41826;53.246;-6.670;2023-06-04T04:59:37;1.58;;;0.93;;
55915;SDS011;41826;53.246;-6.670;2023-06-04T05:02:04;1.33;;;1.13;;
55915;SDS011;41826;53.246;-6.670;2023-06-04T05:04:29;1.30;;;1.15;;
55915;SDS011;41826;53.246;-6.670;2023-06-04T05:06:55;4.97;;;3.20;;
55915;SDS011;41826;53.246;-6.670;2023-06-04T05:09:20;6.18;;;3.40;;
55915;SDS011;41826;53.246;-6.670;2023-06-04T05:11:46;6.60;;;3.88;;
55915;SDS011;41826;53.246;-6.670;2023-06-04T05:14:11;10.95;;;4.85;;
55915;SDS011;41826;53.246;-6.670;2023-06-04T05:16:37;6.90;;;4.25;;
55915;SDS011;41826;53.246;-6.670;2023-06-04T05:19:05;12.32;;;4.80;;
55915;SDS011;41826;53.246;-6.670;2023-06-04T05:21:31;8.05;;;4.68;;
55915;SDS011;41826;53.246;-6.670;2023-06-04T05:23:56;6.07;;;4.63;;
55915;SDS011;41826;53.246;-6.670;2023-06-04T05:26:22;10.18;;;4.85;;
55915;SDS011;41826;53.246;-6.670;2023-06-04T05:28:50;15.10;;;5.57;;
55915;SDS011;41826;53.246;-6.670;2023-06-04T05:31:16;7.72;;;4.32;;
55915;SDS011;41826;53.246;-6.670;2023-06-04T05:33:43;8.20;;;4.93;;
55915;SDS011;41826;53.246;-6.670;2023-06-04T05:36:09;9.32;;;5.70;;
55915;SDS011;41826;53.246;-6.670;2023-06-04T05:38:35;11.52;;;5.53;;
55915;SDS011;41826;53.246;-6.670;2023-06-04T05:41:01;13.13;;;5.68;;
55915;SDS011;41826;53.246;-6.670;2023-06-04T05:43:27;10.10;;;5.20;;
55915;SDS011;41826;53.246;-6.670;2023-06-04T05:45:52;11.13;;;6.00;;
55915;SDS011;41826;53.246;-6.670;2023-06-04T05:48:18;9.82;;;5.15;;
55915;SDS011;41826;53.246;-6.670;2023-06-04T05:50:44;9.75;;;6.05;;
55915;SDS011;41826;53.246;-6.670;2023-06-04T05:53:09;14.10;;;5.65;;
55915;SDS011;41826;53.246;-6.670;2023-06-04T05:55:35;12.70;;;5.13;;
55915;SDS011;41826;53.246;-6.670;2023-06-04T05:58:01;12.30;;;5.47;;
55915;SDS011;41826;53.246;-6.670;2023-06-04T06:00:26;16.33;;;6.47;;
55915;SDS011;41826;53.246;-6.670;2023-06-04T06:02:52;11.30;;;5.57;;
55915;SDS011;41826;53.246;-6.670;2023-06-04T06:05:18;10.20;;;6.10;;
55915;SDS011;41826;53.246;-6.670;2023-06-04T06:07:44;9.88;;;6.32;;
55915;SDS011;41826;53.246;-6.670;2023-06-04T06:10:10;13.32;;;5.93;;
55915;SDS011;41826;53.246;-6.670;2023-06-04T06:12:36;9.32;;;5.07;;
55915;SDS011;41826;53.246;-6.670;2023-06-04T06:15:02;13.27;;;6.07;;
55915;SDS011;41826;53.246;-6.670;2023-06-04T06:17:28;8.77;;;5.20;;
55915;SDS011;41826;53.246;-6.670;2023-06-04T06:19:53;9.75;;;4.93;;
55915;SDS011;41826;53.246;-6.670;2023-06-04T06:22:20;8.73;;;4.65;;
55915;SDS011;41826;53.246;-6.670;2023-06-04T06:24:45;11.10;;;4.50;;
55915;SDS011;41826;53.246;-6.670;2023-06-04T06:27:13;11.30;;;4.75;;
55915;SDS011;41826;53.246;-6.670;2023-06-04T06:29:40;7.53;;;4.60;;
55915;SDS011;41826;53.246;-6.670;2023-06-04T06:32:05;9.35;;;4.53;;
55915;SDS011;41826;53.246;-6.670;2023-06-04T06:34:31;11.57;;;4.80;;
55915;SDS011;41826;53.246;-6.670;2023-06-04T06:36:56;7.97;;;4.65;;
55915;SDS011;41826;53.246;-6.670;2023-06-04T06:39:22;9.50;;;4.07;;
55915;SDS011;41826;53.246;-6.670;2023-06-04T06:41:48;8.57;;;4.35;;
55915;SDS011;41826;53.246;-6.670;2023-06-04T06:44:13;9.60;;;4.70;;
55915;SDS011;41826;53.246;-6.670;2023-06-04T06:46:38;9.57;;;4.55;;
55915;SDS011;41826;53.246;-6.670;2023-06-04T06:49:04;7.50;;;4.18;;
55915;SDS011;41826;53.246;-6.670;2023-06-04T06:51:29;6.03;;;3.97;;
55915;SDS011;41826;53.246;-6.670;2023-06-04T06:53:55;6.28;;;4.10;;
55915;SDS011;41826;53.246;-6.670;2023-06-04T06:56:21;8.32;;;4.72;;
55915;SDS011;41826;53.246;-6.670;2023-06-04T06:58:47;8.80;;;4.25;;
55915;SDS011;41826;53.246;-6.670;2023-06-04T07:01:13;6.60;;;4.10;;
55915;SDS011;41826;53.246;-6.670;2023-06-04T07:03:38;8.00;;;3.80;;
55915;SDS011;41826;53.246;-6.670;2023-06-04T07:06:07;5.78;;;3.85;;
55915;SDS011;41826;53.246;-6.670;2023-06-04T07:08:34;7.40;;;3.75;;
55915;SDS011;41826;53.246;-6.670;2023-06-04T07:11:01;5.40;;;3.75;;
55915;SDS011;41826;53.246;-6.670;2023-06-04T07:13:27;9.07;;;3.50;;
55915;SDS011;41826;53.246;-6.670;2023-06-04T07:15:53;9.05;;;3.53;;
55915;SDS011;41826;53.246;-6.670;2023-06-04T07:18:18;6.05;;;3.55;;
55915;SDS011;41826;53.246;-6.670;2023-06-04T07:20:44;12.88;;;3.75;;
55915;SDS011;41826;53.246;-6.670;2023-06-04T07:23:09;6.45;;;3.17;;
55915;SDS011;41826;53.246;-6.670;2023-06-04T07:25:36;5.32;;;2.85;;
55915;SDS011;41826;53.246;-6.670;2023-06-04T07:28:01;4.45;;;2.97;;
55915;SDS011;41826;53.246;-6.670;2023-06-04T07:30:29;5.97;;;3.00;;
55915;SDS011;41826;53.246;-6.670;2023-06-04T07:32:56;8.05;;;3.40;;
55915;SDS011;41826;53.246;-6.670;2023-06-04T07:35:22;6.18;;;2.47;;
55915;SDS011;41826;53.246;-6.670;2023-06-04T07:37:47;12.15;;;3.03;;
55915;SDS011;41826;53.246;-6.670;2023-06-04T07:40:14;7.90;;;2.90;;
55915;SDS011;41826;53.246;-6.670;2023-06-04T07:42:40;5.78;;;2.92;;
55915;SDS011;41826;53.246;-6.670;2023-06-04T07:45:07;7.65;;;2.92;;
55915;SDS011;41826;53.246;-6.670;2023-06-04T07:47:34;6.68;;;3.05;;
55915;SDS011;41826;53.246;-6.670;2023-06-04T07:50:01;5.43;;;2.60;;
55915;SDS011;41826;53.246;-6.670;2023-06-04T07:52:26;4.18;;;1.92;;
55915;SDS011;41826;53.246;-6.670;2023-06-04T07:54:51;5.05;;;2.00;;
55915;SDS011;41826;53.246;-6.670;2023-06-04T07:57:17;9.98;;;2.88;;
55915;SDS011;41826;53.246;-6.670;2023-06-04T07:59:42;9.75;;;2.80;;
55915;SDS011;41826;53.246;-6.670;2023-06-04T08:02:08;8.38;;;3.00;;
55915;SDS011;41826;53.246;-6.670;2023-06-04T08:04:33;12.13;;;2.60;;
55915;SDS011;41826;53.246;-6.670;2023-06-04T08:06:59;4.68;;;2.53;;
55915;SDS011;41826;53.246;-6.670;2023-06-04T08:09:24;6.88;;;2.42;;
55915;SDS011;41826;53.246;-6.670;2023-06-04T08:11:50;8.48;;;2.90;;
55915;SDS011;41826;53.246;-6.670;2023-06-04T08:14:16;6.93;;;2.60;;
55915;SDS011;41826;53.246;-6.670;2023-06-04T08:16:41;9.18;;;3.00;;
55915;SDS011;41826;53.246;-6.670;2023-06-04T08:19:07;5.22;;;2.15;;
55915;SDS011;41826;53.246;-6.670;2023-06-04T08:21:33;4.93;;;2.42;;
55915;SDS011;41826;53.246;-6.670;2023-06-04T08:23:58;6.78;;;2.55;;
55915;SDS011;41826;53.246;-6.670;2023-06-04T08:26:25;7.47;;;2.42;;
55915;SDS011;41826;53.246;-6.670;2023-06-04T08:28:52;7.45;;;2.55;;
55915;SDS011;41826;53.246;-6.670;2023-06-04T08:31:18;7.53;;;2.45;;
55915;SDS011;41826;53.246;-6.670;2023-06-04T08:33:46;7.97;;;2.70;;
55915;SDS011;41826;53.246;-6.670;2023-06-04T08:36:12;5.30;;;2.22;;
55915;SDS011;41826;53.246;-6.670;2023-06-04T08:38:37;5.60;;;2.22;;
55915;SDS011;41826;53.246;-6.670;2023-06-04T08:41:07;9.82;;;2.67;;
55915;SDS011;41826;53.246;-6.670;2023-06-04T08:43:38;4.90;;;2.00;;
55915;SDS011;41826;53.246;-6.670;2023-06-04T08:46:05;10.35;;;2.28;;
55915;SDS011;41826;53.246;-6.670;2023-06-04T08:48:33;9.05;;;2.08;;
55915;SDS011;41826;53.246;-6.670;2023-06-04T08:51:01;6.47;;;2.10;;
55915;SDS011;41826;53.246;-6.670;2023-06-04T08:53:30;2.92;;;2.00;;
55915;SDS011;41826;53.246;-6.670;2023-06-04T08:55:57;7.53;;;2.20;;
55915;SDS011;41826;53.246;-6.670;2023-06-04T08:58:23;8.48;;;2.05;;
55915;SDS011;41826;53.246;-6.670;2023-06-04T09:00:50;5.75;;;2.17;;
55915;SDS011;41826;53.246;-6.670;2023-06-04T09:03:16;4.03;;;1.60;;
55915;SDS011;41826;53.246;-6.670;2023-06-04T09:05:44;6.65;;;1.80;;
55915;SDS011;41826;53.246;-6.670;2023-06-04T09:08:12;5.60;;;1.60;;
55915;SDS011;41826;53.246;-6.670;2023-06-04T09:10:41;10.27;;;2.17;;
55915;SDS011;41826;53.246;-6.670;2023-06-04T09:13:08;4.13;;;1.77;;
55915;SDS011;41826;53.246;-6.670;2023-06-04T09:15:34;4.80;;;1.42;;
55915;SDS011;41826;53.246;-6.670;2023-06-04T09:18:00;5.70;;;1.92;;
55915;SDS011;41826;53.246;-6.670;2023-06-04T09:20:26;3.92;;;1.83;;
55915;SDS011;41826;53.246;-6.670;2023-06-04T09:22:52;3.63;;;1.50;;
55915;SDS011;41826;53.246;-6.670;2023-06-04T09:25:19;4.63;;;1.50;;
55915;SDS011;41826;53.246;-6.670;2023-06-04T09:27:46;7.28;;;2.00;;
55915;SDS011;41826;53.246;-6.670;2023-06-04T09:30:12;6.25;;;1.95;;
55915;SDS011;41826;53.246;-6.670;2023-06-04T09:32:38;7.75;;;2.35;;
55915;SDS011;41826;53.246;-6.670;2023-06-04T09:38:01;6.45;;;1.92;;
55915;SDS011;41826;53.246;-6.670;2023-06-04T09:40:35;4.15;;;2.00;;
55915;SDS011;41826;53.246;-6.670;2023-06-04T09:43:02;8.38;;;2.30;;
55915;SDS011;41826;53.246;-6.670;2023-06-04T09:45:28;5.30;;;2.00;;
55915;SDS011;41826;53.246;-6.670;2023-06-04T09:48:00;8.02;;;2.20;;
55915;SDS011;41826;53.246;-6.670;2023-06-04T09:50:27;4.22;;;1.88;;
55915;SDS011;41826;53.246;-6.670;2023-06-04T09:52:55;3.65;;;1.33;;
55915;SDS011;41826;53.246;-6.670;2023-06-04T09:55:21;6.22;;;1.98;;
55915;SDS011;41826;53.246;-6.670;2023-06-04T09:57:48;6.50;;;1.88;;
55915;SDS011;41826;53.246;-6.670;2023-06-04T10:00:22;3.22;;;1.58;;
55915;SDS011;41826;53.246;-6.670;2023-06-04T10:02:49;4.38;;;1.73;;
55915;SDS011;41826;53.246;-6.670;2023-06-04T10:05:20;4.60;;;1.85;;
55915;SDS011;41826;53.246;-6.670;2023-06-04T10:07:47;5.72;;;1.83;;
55915;SDS011;41826;53.246;-6.670;2023-06-04T10:10:18;4.18;;;1.42;;
55915;SDS011;41826;53.246;-6.670;2023-06-04T10:12:47;5.18;;;1.80;;
55915;SDS011;41826;53.246;-6.670;2023-06-04T10:15:15;4.65;;;1.70;;
55915;SDS011;41826;53.246;-6.670;2023-06-04T10:17:42;3.88;;;1.98;;
55915;SDS011;41826;53.246;-6.670;2023-06-04T10:20:08;6.38;;;1.75;;
55915;SDS011;41826;53.246;-6.670;2023-06-04T10:22:35;5.60;;;2.00;;
55915;SDS011;41826;53.246;-6.670;2023-06-04T10:25:01;11.57;;;2.45;;
55915;SDS011;41826;53.246;-6.670;2023-06-04T10:27:29;6.38;;;1.75;;
55915;SDS011;41826;53.246;-6.670;2023-06-04T10:29:56;6.65;;;1.60;;
55915;SDS011;41826;53.246;-6.670;2023-06-04T10:32:23;2.67;;;1.50;;
55915;SDS011;41826;53.246;-6.670;2023-06-04T10:34:53;6.05;;;1.52;;
55915;SDS011;41826;53.246;-6.670;2023-06-04T10:37:19;5.15;;;1.80;;
55915;SDS011;41826;53.246;-6.670;2023-06-04T10:39:54;3.35;;;1.48;;
55915;SDS011;41826;53.246;-6.670;2023-06-04T10:42:23;4.25;;;1.58;;
55915;SDS011;41826;53.246;-6.670;2023-06-04T10:44:53;2.78;;;1.50;;
55915;SDS011;41826;53.246;-6.670;2023-06-04T10:47:26;3.60;;;1.55;;
55915;SDS011;41826;53.246;-6.670;2023-06-04T10:50:06;3.40;;;1.23;;
55915;SDS011;41826;53.246;-6.670;2023-06-04T10:52:35;3.00;;;1.48;;
55915;SDS011;41826;53.246;-6.670;2023-06-04T10:55:05;6.85;;;1.63;;
55915;SDS011;41826;53.246;-6.670;2023-06-04T10:57:32;2.60;;;1.30;;
55915;SDS011;41826;53.246;-6.670;2023-06-04T10:59:58;4.15;;;1.70;;
55915;SDS011;41826;53.246;-6.670;2023-06-04T11:02:24;5.00;;;1.83;;
55915;SDS011;41826;53.246;-6.670;2023-06-04T11:05:06;3.45;;;1.60;;
55915;SDS011;41826;53.246;-6.670;2023-06-04T11:07:40;2.13;;;1.27;;
55915;SDS011;41826;53.246;-6.670;2023-06-04T11:10:10;3.03;;;1.35;;
55915;SDS011;41826;53.246;-6.670;2023-06-04T11:12:58;3.63;;;1.30;;
55915;SDS011;41826;53.246;-6.670;2023-06-04T11:15:23;4.18;;;1.63;;
55915;SDS011;41826;53.246;-6.670;2023-06-04T11:17:52;3.10;;;1.70;;
55915;SDS011;41826;53.246;-6.670;2023-06-04T11:20:19;2.90;;;1.70;;
55915;SDS011;41826;53.246;-6.670;2023-06-04T11:25:21;2.70;;;1.50;;
55915;SDS011;41826;53.246;-6.670;2023-06-04T11:27:48;3.55;;;1.65;;
55915;SDS011;41826;53.246;-6.670;2023-06-04T11:30:15;2.08;;;1.15;;
55915;SDS011;41826;53.246;-6.670;2023-06-04T11:32:41;1.70;;;1.27;;
55915;SDS011;41826;53.246;-6.670;2023-06-04T11:35:06;4.57;;;1.50;;
55915;SDS011;41826;53.246;-6.670;2023-06-04T11:37:34;4.47;;;1.40;;
55915;SDS011;41826;53.246;-6.670;2023-06-04T11:40:00;1.92;;;1.10;;
55915;SDS011;41826;53.246;-6.670;2023-06-04T11:42:29;3.72;;;1.48;;
55915;SDS011;41826;53.246;-6.670;2023-06-04T11:44:57;4.72;;;1.40;;
55915;SDS011;41826;53.246;-6.670;2023-06-04T11:47:23;6.57;;;1.73;;
55915;SDS011;41826;53.246;-6.670;2023-06-04T11:49:55;3.72;;;1.60;;
55915;SDS011;41826;53.246;-6.670;2023-06-04T11:52:21;2.25;;;1.40;;
55915;SDS011;41826;53.246;-6.670;2023-06-04T11:54:48;3.15;;;1.40;;
55915;SDS011;41826;53.246;-6.670;2023-06-04T11:57:14;2.13;;;1.30;;
55915;SDS011;41826;53.246;-6.670;2023-06-04T11:59:40;4.18;;;1.40;;
55915;SDS011;41826;53.246;-6.670;2023-06-04T12:02:06;1.75;;;1.23;;
55915;SDS011;41826;53.246;-6.670;2023-06-04T12:04:32;6.03;;;1.52;;
55915;SDS011;41826;53.246;-6.670;2023-06-04T12:06:58;3.40;;;1.10;;
55915;SDS011;41826;53.246;-6.670;2023-06-04T12:09:27;3.17;;;1.42;;
55915;SDS011;41826;53.246;-6.670;2023-06-04T12:12:03;3.65;;;1.95;;
55915;SDS011;41826;53.246;-6.670;2023-06-04T12:14:30;3.25;;;1.60;;
55915;SDS011;41826;53.246;-6.670;2023-06-04T12:16:56;5.75;;;1.40;;
55915;SDS011;41826;53.246;-6.670;2023-06-04T12:19:22;4.70;;;1.38;;
55915;SDS011;41826;53.246;-6.670;2023-06-04T12:21:58;3.30;;;1.48;;
55915;SDS011;41826;53.246;-6.670;2023-06-04T12:24:25;3.50;;;1.55;;
55915;SDS011;41826;53.246;-6.670;2023-06-04T12:27:00;3.97;;;1.25;;
55915;SDS011;41826;53.246;-6.670;2023-06-04T12:29:34;4.97;;;1.17;;
55915;SDS011;41826;53.246;-6.670;2023-06-04T12:32:08;4.68;;;2.08;;
55915;SDS011;41826;53.246;-6.670;2023-06-04T12:34:36;4.85;;;1.65;;
55915;SDS011;41826;53.246;-6.670;2023-06-04T12:37:02;3.63;;;1.55;;
55915;SDS011;41826;53.246;-6.670;2023-06-04T12:39:28;4.40;;;1.40;;
55915;SDS011;41826;53.246;-6.670;2023-06-04T12:41:54;8.65;;;1.52;;
55915;SDS011;41826;53.246;-6.670;2023-06-04T12:44:20;1.30;;;1.05;;
55915;SDS011;41826;53.246;-6.670;2023-06-04T12:46:46;2.08;;;1.08;;
55915;SDS011;41826;53.246;-6.670;2023-06-04T12:49:11;5.50;;;1.27;;
55915;SDS011;41826;53.246;-6.670;2023-06-04T12:51:37;1.83;;;0.98;;
55915;SDS011;41826;53.246;-6.670;2023-06-04T12:54:03;3.05;;;1.30;;
55915;SDS011;41826;53.246;-6.670;2023-06-04T12:56:29;2.47;;;1.30;;
55915;SDS011;41826;53.246;-6.670;2023-06-04T12:58:55;4.00;;;1.35;;
55915;SDS011;41826;53.246;-6.670;2023-06-04T13:01:21;1.80;;;0.93;;
55915;SDS011;41826;53.246;-6.670;2023-06-04T13:03:46;3.95;;;1.55;;
55915;SDS011;41826;53.246;-6.670;2023-06-04T13:06:12;3.55;;;1.17;;
55915;SDS011;41826;53.246;-6.670;2023-06-04T13:08:37;1.77;;;1.08;;
55915;SDS011;41826;53.246;-6.670;2023-06-04T13:11:03;2.70;;;1.27;;
55915;SDS011;41826;53.246;-6.670;2023-06-04T13:13:29;1.63;;;1.20;;
55915;SDS011;41826;53.246;-6.670;2023-06-04T13:15:55;2.80;;;1.20;;
55915;SDS011;41826;53.246;-6.670;2023-06-04T13:18:20;4.45;;;1.30;;
55915;SDS011;41826;53.246;-6.670;2023-06-04T13:20:46;5.57;;;1.13;;
55915;SDS011;41826;53.246;-6.670;2023-06-04T13:23:11;2.22;;;1.30;;
55915;SDS011;41826;53.246;-6.670;2023-06-04T13:25:38;2.25;;;1.23;;
55915;SDS011;41826;53.246;-6.670;2023-06-04T13:28:04;3.50;;;1.20;;
55915;SDS011;41826;53.246;-6.670;2023-06-04T13:30:31;2.70;;;1.20;;
55915;SDS011;41826;53.246;-6.670;2023-06-04T13:32:56;1.33;;;0.98;;
55915;SDS011;41826;53.246;-6.670;2023-06-04T13:35:24;5.70;;;1.52;;
55915;SDS011;41826;53.246;-6.670;2023-06-04T13:37:53;3.65;;;1.13;;
55915;SDS011;41826;53.246;-6.670;2023-06-04T13:40:19;2.63;;;1.60;;
55915;SDS011;41826;53.246;-6.670;2023-06-04T13:42:45;3.60;;;1.33;;
55915;SDS011;41826;53.246;-6.670;2023-06-04T13:45:11;3.45;;;1.23;;
55915;SDS011;41826;53.246;-6.670;2023-06-04T13:47:36;5.28;;;1.58;;
55915;SDS011;41826;53.246;-6.670;2023-06-04T13:50:02;2.30;;;1.10;;
55915;SDS011;41826;53.246;-6.670;2023-06-04T13:52:31;3.97;;;1.25;;
55915;SDS011;41826;53.246;-6.670;2023-06-04T13:54:56;4.70;;;1.40;;
55915;SDS011;41826;53.246;-6.670;2023-06-04T13:57:25;5.78;;;1.42;;
55915;SDS011;41826;53.246;-6.670;2023-06-04T13:59:50;4.22;;;1.88;;
55915;SDS011;41826;53.246;-6.670;2023-06-04T14:02:16;2.10;;;1.20;;
55915;SDS011;41826;53.246;-6.670;2023-06-04T14:04:41;6.28;;;1.02;;
55915;SDS011;41826;53.246;-6.670;2023-06-04T14:07:08;2.83;;;1.23;;
55915;SDS011;41826;53.246;-6.670;2023-06-04T14:09:33;3.53;;;1.38;;
55915;SDS011;41826;53.246;-6.670;2023-06-04T14:11:59;4.15;;;0.98;;
55915;SDS011;41826;53.246;-6.670;2023-06-04T14:14:26;2.65;;;1.10;;
55915;SDS011;41826;53.246;-6.670;2023-06-04T14:16:53;8.45;;;1.60;;
55915;SDS011;41826;53.246;-6.670;2023-06-04T14:19:19;4.03;;;1.40;;
55915;SDS011;41826;53.246;-6.670;2023-06-04T14:21:45;2.22;;;1.52;;
55915;SDS011;41826;53.246;-6.670;2023-06-04T14:24:10;6.28;;;2.55;;
55915;SDS011;41826;53.246;-6.670;2023-06-04T14:26:36;3.67;;;1.73;;
55915;SDS011;41826;53.246;-6.670;2023-06-04T14:29:02;5.00;;;1.25;;
55915;SDS011;41826;53.246;-6.670;2023-06-04T14:31:28;2.03;;;1.20;;
55915;SDS011;41826;53.246;-6.670;2023-06-04T14:33:54;5.22;;;1.40;;
55915;SDS011;41826;53.246;-6.670;2023-06-04T14:36:19;3.10;;;1.20;;
55915;SDS011;41826;53.246;-6.670;2023-06-04T14:38:46;1.40;;;1.00;;